Weather observations for the past three days for
Boone Municipal
Imperial (Metric)
Date Time (cdt) Wind (mph) Vis. (mi.) Weather Sky Cond. Temperature (ºF) Relative Humidity Wind Chill (°F) Heat Index (°F) Pressure Precipitation (in)
Air Dwpt 6 hour altimeter (in) sea level (mb) 1 hr 3 hr 6 hr
Max. Min.
06 03:35 N 7 10.00 NULL NULL 39.2 26.6 61% 35 29.96 0.0
06 03:15 N 8 10.00 Fair CLR 39.2 24.8 56% 34 29.95 0.0
06 02:55 N 7 10.00 Fair CLR 39.2 24.8 56% 35 29.95 0.0
06 02:35 NW 7 10.00 Fair CLR 39.2 24.8 56% 35 29.95 0.0
06 02:15 NW 7 10.00 Fair CLR 41 24.8 53% 37 29.95 0.0
06 01:55 NW 7 10.00 Fair CLR 41 23 49% 37 29.95 0.0
06 01:35 NW 6 10.00 Fair CLR 41 23 49% 38 29.95 0.0
06 01:15 NW 6 10.00 NULL NULL 41 23 49% 38 29.94 0.0
06 00:55 N 6 10.00 Fair CLR 42.8 23 46% 40 29.94 0.0
06 00:35 NW 6 10.00 Fair CLR 41 24.8 53% 38 29.93 0.0
06 00:15 NW 7 10.00 Fair CLR 41 24.8 53% 37 29.93 0.0
05 23:55 N 8 10.00 A Few Clouds FEW049 42.8 24.8 49% 39 29.92 0.0
05 23:35 N 7 10.00 Fair CLR 42.8 24.8 49% 39 29.91 0.0
05 23:15 N 8 10.00 Fair CLR 42.8 24.8 49% 39 29.91 0.0
05 22:55 N 8 10.00 Fair CLR 44.6 24.8 46% 41 29.91 0.0
05 22:35 N 10 10.00 Fair CLR 46.4 24.8 43% 42 29.9 0.0
05 22:10 NW 10 10.00 Fair CLR 46.4 23 40% 42 29.9 0.0
05 21:55 NW 12 10.00 Fair CLR 48.2 23 37% 44 29.89 0.0
05 21:35 NW 9 10.00 Fair CLR 48.2 23 37% 45 29.89 0.0
05 21:15 NW 13 10.00 Fair CLR 48.2 23 37% 43 29.88 0.0
05 20:55 NW 13 G 20 10.00 Fair CLR 50 23 35% 46 29.88 0.0
05 20:35 NW 13 G 20 10.00 Fair CLR 51.8 23 32% 29.87 0.0
05 20:15 NW 14 G 21 10.00 Fair CLR 51.8 23 32% 29.86 0.0
05 19:55 N 14 10.00 Fair CLR 51.8 23 32% 29.85 0.0
05 19:35 NW 15 G 22 10.00 Fair CLR 53.6 21.2 28% 29.84 0.0
05 19:15 NW 14 G 22 10.00 Fair CLR 53.6 23 30% 29.84 0.0
05 18:55 NW 14 G 22 10.00 A Few Clouds FEW080 53.6 23 30% 29.83 0.0
05 18:35 NW 17 G 23 10.00 Fair CLR 55.4 23 28% 29.83 0.0
05 18:15 NW 16 G 24 10.00 Fair CLR 55.4 23 28% 29.82 0.0
05 17:55 NW 18 3.00 Fair with Haze CLR 55.4 23 28% 29.82 0.0
05 17:35 NW 16 G 23 10.00 A Few Clouds FEW080 55.4 23 28% 29.82 0.0
05 17:15 NW 16 G 23 10.00 A Few Clouds FEW080 57.2 23 27% 29.81 0.0
05 16:55 W 15 G 23 10.00 Fair CLR 57.2 23 27% 29.82 0.0
05 16:35 NW 16 G 29 10.00 Fair CLR 55.4 24.8 31% 29.82 0.0
05 16:15 W 16 G 26 10.00 Fair CLR 57.2 23 27% 29.83 0.0
05 15:55 W 16 G 26 10.00 Fair CLR 57.2 23 27% 29.83 0.0
05 15:35 NW 17 G 25 10.00 Fair CLR 57.2 23 27% 29.83 0.0
05 15:15 W 22 G 28 10.00 Fair and Breezy CLR 57.2 23 27% 29.84 0.0
05 14:55 NW 17 G 26 10.00 A Few Clouds FEW080 57.2 24.8 29% 29.84 0.0
05 14:35 NW 12 G 29 10.00 A Few Clouds FEW080 57.2 26.6 31% 29.84 0.0
05 14:15 W 20 10.00 A Few Clouds FEW075 57.2 24.8 29% 29.84 0.0
05 13:55 NW 18 G 26 10.00 Mostly Cloudy BKN075 57.2 26.6 31% 29.85 0.0
05 13:35 W 17 G 26 10.00 Mostly Cloudy BKN075 57.2 24.8 29% 29.85 0.0
05 13:15 W 14 G 23 10.00 Partly Cloudy SCT075 57.2 24.8 29% 29.85 0.0
05 12:55 W 10 G 20 10.00 Partly Cloudy SCT070 55.4 24.8 31% 29.85 0.0
05 12:35 W 15 G 24 10.00 Mostly Cloudy BKN070 57.2 26.6 31% 29.86 0.0
05 12:15 W 12 G 18 10.00 Mostly Cloudy BKN070 55.4 26.6 33% 29.86 0.0
05 11:55 NW 13 G 21 10.00 Mostly Cloudy BKN070 55.4 26.6 33% 29.86 0.0
05 11:35 NW 12 G 22 10.00 Mostly Cloudy BKN070 53.6 26.6 35% 29.86 0.0
05 11:15 NW 14 G 20 10.00 Partly Cloudy SCT070 55.4 26.6 33% 29.86 0.0
05 10:35 NW 13 G 23 10.00 Mostly Cloudy BKN060 BKN075 51.8 26.6 38% 29.86 0.0
05 10:15 NW 13 10.00 Partly Cloudy SCT065 51.8 28.4 41% 29.87 0.0
05 09:55 N 12 10.00 Fair CLR 51.8 28.4 41% 29.86 0.0
05 09:35 NW 6 G 14 10.00 Fair CLR 51.8 26.6 38% 29.87 0.0
05 09:15 Calm 10.00 Fair CLR 50 26.6 40% 29.86 0.0
05 08:55 Calm 10.00 Fair CLR 50 28.4 43% 29.85 0.0
05 08:35 NW 5 10.00 Fair CLR 48.2 28.4 46% 47 29.84 0.0
05 08:15 Vrbl 3 G 12 10.00 Fair CLR 48.2 28.4 46% 29.84 0.0
05 07:55 Calm 10.00 Fair CLR 48.2 28.4 46% 29.84 0.0
05 07:35 Calm 10.00 Fair CLR 46.4 35.6 66% 29.84 0.0
05 07:15 Calm 10.00 Fair CLR 42.8 32 66% 29.85 0.0
05 06:55 W 5 10.00 Fair CLR 42.8 32 66% 41 29.84 0.0
05 06:35 SW 6 10.00 Fair CLR 44.6 30.2 57% 42 29.84 0.0
05 06:15 W 5 10.00 Fair CLR 44.6 30.2 57% 43 29.82 0.0
05 05:55 W 5 10.00 Fair CLR 44.6 30.2 57% 43 29.81 0.0
05 05:35 W 5 10.00 Fair CLR 44.6 30.2 57% 43 29.81 0.0
05 05:15 Calm 10.00 Fair CLR 46.4 28.4 50% 29.8 0.0
05 04:55 Calm 10.00 Fair CLR 46.4 28.4 50% 29.8 0.0
05 04:35 Calm 10.00 Fair CLR 46.4 26.6 46% 29.79 0.0
05 04:15 Calm 10.00 Fair CLR 44.6 28.4 53% 29.78 0.0
05 03:55 N 6 10.00 Fair CLR 44.6 28.4 53% 42 29.76 0.0
05 03:35 N 6 10.00 Fair CLR 44.6 28.4 53% 42 29.76 0.0
05 03:15 N 7 10.00 Fair CLR 46.4 28.4 50% 43 29.75 0.0
05 02:55 N 7 10.00 A Few Clouds FEW110 48.2 28.4 46% 46 29.75 0.0
05 02:35 N 5 10.00 Mostly Cloudy BKN110 48.2 30.2 50% 47 29.76 0.0
05 02:15 N 6 10.00 Mostly Cloudy SCT100 BKN120 48.2 30.2 50% 46 29.77 0.0
05 01:55 N 8 10.00 Mostly Cloudy FEW090 BKN120 50 28.4 43% 47 29.77 0.0
05 01:35 N 7 10.00 Overcast SCT095 OVC120 50 28.4 43% 48 29.77 0.0
05 01:15 N 8 G 14 10.00 Mostly Cloudy FEW050 FEW075 BKN110 50 28.4 43% 47 29.76 0.0
05 00:55 NW 9 10.00 Mostly Cloudy FEW047 SCT060 BKN075 51.8 30.2 44% 29.78 0.0
05 00:35 N 14 10.00 Overcast SCT060 BKN070 OVC090 51.8 30.2 44% 29.74 0.0
05 00:15 NW 13 10.00 Overcast BKN065 BKN080 OVC100 51.8 30.2 44% 29.75 0.0
04 23:55 N 13 10.00 Overcast FEW055 BKN065 OVC100 51.8 30.2 44% 29.73 0.0
04 23:35 N 16 G 22 10.00 Light Rain FEW055 OVC070 51.8 32 47% 29.74 0.0
04 23:15 NW 15 G 23 10.00 Overcast SCT060 BKN070 OVC080 51.8 32 47% 29.75 0.0
04 22:55 NW 18 G 28 10.00 Overcast FEW029 BKN080 OVC100 51.8 33.8 50% 29.74 0.0
04 22:35 NW 22 G 29 10.00 Overcast and Breezy SCT055 BKN075 OVC120 51.8 35.6 54% 29.71 0.0
04 22:15 NW 24 G 33 10.00 Light Rain and Breezy FEW050 SCT065 OVC075 53.6 33.8 47% 29.71 0.0
04 21:55 NW 23 G 30 10.00 Overcast and Breezy FEW050 BKN065 OVC100 55.4 30.2 38% 29.71 0.0
04 21:35 NW 14 G 28 10.00 Overcast SCT080 BKN100 OVC120 55.4 30.2 38% 29.72 0.0
04 21:15 NW 20 G 35 10.00 Light Drizzle FEW039 BKN065 OVC110 55.4 32 41% 29.71 0.0
04 20:55 NW 21 G 31 10.00 Light Rain and Breezy FEW030 BKN055 OVC070 55.4 33.8 44% 29.71 0.0
04 20:35 NW 16 G 28 10.00 Overcast FEW036 BKN055 OVC110 57.2 33.8 41% 29.68 0.0
04 20:15 NW 22 G 35 10.00 Overcast and Breezy FEW002 SCT090 OVC110 59 30.2 34% 29.67 0.0
04 19:55 NW 24 G 38 10.00 Partly Cloudy and Breezy SCT120 59 32 36% 29.65 0.0
04 19:15 NW 21 G 31 0.00 Fair and Breezy CLR 62.6 30.2 30% 29.63 0.0
04 18:55 NW 24 G 31 10.00 Fair and Breezy CLR 66.2 30.2 26% 29.62 0.0
04 18:35 NW 23 G 32 10.00 Fair and Breezy CLR 68 32 26% 29.61 0.0
04 18:15 NW 26 G 33 10.00 Fair and Windy CLR 69.8 33.8 27% 29.61 0.0
04 17:55 N 23 G 30 10.00 Fair and Breezy CLR 71.6 33.8 25% 29.59 0.0
04 17:35 NW 22 G 31 10.00 Fair and Breezy CLR 71.6 33.8 25% 29.59 0.0
04 17:15 N 24 10.00 Fair and Breezy CLR 71.6 35.6 27% 29.57 0.0
04 16:55 N 23 G 29 10.00 Fair and Breezy CLR 73.4 35.6 25% 29.56 0.0
04 16:35 NW 17 G 25 10.00 Fair CLR 73.4 37.4 27% 29.56 0.0
04 16:15 NW 23 G 29 10.00 Fair and Breezy CLR 75.2 35.6 24% 76 29.55 0.0
04 15:55 N 21 G 31 10.00 Fair and Breezy CLR 75.2 37.4 25% 77 29.54 0.0
04 15:35 NW 18 G 32 9.00 Fair CLR 75.2 41 29% 77 29.54 0.0
04 15:15 NW 16 G 28 10.00 Fair CLR 77 42.8 30% 78 29.54 0.0
04 14:55 NW 20 10.00 Fair CLR 77 44.6 32% 78 29.53 0.0
04 14:35 NW 15 G 35 10.00 Fair CLR 78.8 44.6 30% 79 29.53 0.0
04 14:15 W 20 G 30 10.00 A Few Clouds FEW090 78.8 42.8 28% 78 29.52 0.0
04 13:55 W 16 G 26 10.00 A Few Clouds FEW090 78.8 42.8 28% 78 29.52 0.0
04 13:30 NW 18 G 29 10.00 Fair CLR 78.8 41 26% 78 29.52 0.0
04 13:15 W 21 G 28 10.00 Fair and Breezy CLR 78.8 41 26% 78 29.52 0.0
04 12:55 W 14 G 26 10.00 Fair CLR 78.8 42.8 28% 78 29.52 0.0
04 12:35 W 16 G 25 10.00 Fair CLR 78.8 41 26% 78 29.52 0.0
04 12:15 W 17 G 25 10.00 Fair CLR 78.8 41 26% 78 29.53 0.0
04 11:55 W 18 G 30 10.00 Fair CLR 78.8 39.2 24% 78 29.53 0.0
04 11:35 W 23 G 29 9.00 Fair and Breezy CLR 77 41 28% 78 29.53 0.0
04 11:15 W 21 G 30 10.00 Fair and Breezy CLR 77 41 28% 78 29.53 0.0
04 10:55 SW 14 10.00 Fair CLR 75.2 42.8 31% 77 29.53 0.0
04 10:35 W 15 10.00 Fair CLR 73.4 44.6 36% 29.53 0.0
04 10:15 W 13 10.00 Fair CLR 71.6 42.8 36% 29.54 0.0
04 09:55 SW 13 10.00 Fair CLR 69.8 42.8 38% 29.55 0.0
04 09:35 SW 12 10.00 Fair CLR 68 41 38% 29.55 0.0
04 09:15 SW 9 10.00 A Few Clouds FEW095 64.4 42.8 46% 29.56 0.0
04 08:55 SW 8 10.00 A Few Clouds FEW095 62.6 41 45% 29.57 0.0
04 08:35 SW 8 10.00 A Few Clouds FEW095 60.8 41 48% 29.57 0.0
04 08:15 SW 8 10.00 Partly Cloudy SCT100 60.8 41 48% 29.57 0.0
04 07:55 SW 7 10.00 Partly Cloudy SCT100 59 41 51% 29.57 0.0
04 07:35 SW 7 10.00 A Few Clouds FEW100 55.4 39.2 55% 29.57 0.0
04 07:15 SW 6 10.00 Fair CLR 53.6 39.2 58% 29.57 0.0
04 06:55 SW 6 10.00 A Few Clouds FEW120 51.8 37.4 58% 29.57 0.0
04 06:35 SW 6 10.00 Partly Cloudy SCT120 51.8 37.4 58% 29.58 0.0
04 06:15 SW 7 10.00 Fair CLR 50 37.4 62% 48 29.58 0.0
04 05:55 SW 7 10.00 NULL NULL 51.8 37.4 58% 29.58 0.0
04 05:35 SW 7 10.00 Fair CLR 51.8 37.4 58% 29.59 0.0
04 05:15 SW 7 10.00 Fair CLR 51.8 35.6 54% 29.59 0.0
04 04:55 SW 7 10.00 Fair CLR 51.8 35.6 54% 29.61 0.0
04 04:35 SW 8 10.00 Fair CLR 53.6 35.6 51% 29.6 0.0
04 04:15 SW 8 10.00 Fair CLR 53.6 35.6 51% 29.61 0.0
04 03:55 SW 8 10.00 Fair CLR 53.6 35.6 51% 29.62 0.0
04 03:35 SW 7 10.00 Fair CLR 53.6 33.8 47% 29.62 0.0
04 03:15 SW 7 10.00 NULL NULL 53.6 33.8 47% 29.63 0.0
04 02:55 SW 7 10.00 Fair CLR 53.6 33.8 47% 29.64 0.0
04 02:35 SW 7 10.00 Fair CLR 53.6 33.8 47% 29.65 0.0
04 02:15 SW 8 10.00 Fair CLR 53.6 33.8 47% 29.66 0.0
04 01:55 SW 9 10.00 Fair CLR 53.6 33.8 47% 29.67 0.0
04 01:35 W 5 10.00 Fair CLR 55.4 33.8 44% 29.67 0.0
04 01:15 SW 6 10.00 Fair CLR 55.4 32 41% 29.68 0.0
04 00:55 SW 9 10.00 Fair CLR 55.4 32 41% 29.68 0.0
04 00:35 SW 7 10.00 Fair CLR 57.2 32 39% 29.69 0.0
04 00:15 SW 7 10.00 NULL NULL 59 32 36% 29.7 0.0
03 23:55 SW 7 10.00 NULL NULL 59 32 36% 29.7 0.0
03 23:35 W 5 10.00 Fair CLR 59 32 36% 29.71 0.0
03 23:15 W 5 10.00 Fair CLR 60.8 32 34% 29.71 0.0
03 22:55 W 6 10.00 Fair CLR 60.8 32 34% 29.72 0.0
03 22:35 SW 7 10.00 Fair CLR 60.8 32 34% 29.73 0.0
03 22:15 W 7 10.00 Fair CLR 60.8 32 34% 29.74 0.0
03 21:55 SW 7 10.00 Fair CLR 60.8 32 34% 29.73 0.0
03 21:35 SW 7 10.00 NULL NULL 60.8 32 34% 29.73 0.0
03 21:15 W 6 10.00 Fair CLR 64.4 30.2 28% 29.73 0.0
03 20:55 Calm 10.00 Fair CLR 60.8 33.8 36% 29.73 0.0
03 20:35 SW 5 10.00 Fair CLR 68 28.4 23% 29.73 0.0
03 20:15 Calm 10.00 Fair CLR 68 30.2 24% 29.73 0.0
03 19:55 W 6 10.00 Fair CLR 69.8 30.2 23% 29.73 0.0
03 19:35 NW 6 10.00 Fair CLR 69.8 30.2 23% 29.73 0.0
03 19:15 NW 8 10.00 Fair CLR 71.6 30.2 22% 29.73 0.0
03 18:55 NW 12 10.00 Fair CLR 71.6 32 23% 29.73 0.0
03 18:35 W 13 10.00 Fair CLR 71.6 28.4 20% 29.73 0.0
03 18:15 NW 12 G 20 10.00 Fair CLR 71.6 32 23% 29.73 0.0
03 17:55 NW 15 G 22 10.00 Fair CLR 71.6 32 23% 29.74 0.0
03 17:35 NW 12 G 17 10.00 Fair CLR 73.4 32 22% 29.74 0.0
03 17:15 N 12 G 21 10.00 Fair CLR 73.4 32 22% 29.74 0.0
03 16:55 NW 14 G 25 10.00 Fair CLR 73.4 32 22% 29.74 0.0
03 16:35 NW 12 G 21 10.00 Fair CLR 73.4 30.2 20% 29.74 0.0
03 16:15 W 20 G 25 10.00 Fair CLR 73.4 30.2 20% 29.74 0.0
03 15:55 NW 13 10.00 Fair CLR 73.4 32 22% 29.75 0.0
03 15:35 N 10 G 25 10.00 Fair CLR 73.4 33.8 23% 29.75 0.0
03 15:15 NW 14 G 23 10.00 Fair CLR 73.4 33.8 23% 29.76 0.0
03 14:55 NW 13 10.00 Fair CLR 71.6 35.6 27% 29.76 0.0
03 14:35 Calm 10.00 Fair CLR 69.8 35.6 29% 29.77 0.0
03 14:15 NW 20 10.00 Fair CLR 71.6 35.6 27% 29.77 0.0
03 13:55 NW 17 G 26 10.00 Fair CLR 71.6 35.6 27% 29.77 0.0
03 13:35 NW 18 G 26 10.00 Fair CLR 71.6 35.6 27% 29.77 0.0
03 13:15 N 14 G 22 10.00 Fair CLR 69.8 35.6 29% 29.77 0.0
03 12:55 NW 16 G 24 10.00 Fair CLR 69.8 37.4 31% 29.77 0.0
03 12:35 NW 17 G 24 10.00 Fair CLR 69.8 39.2 33% 29.77 0.0
03 12:15 NW 16 10.00 Fair CLR 69.8 37.4 31% 29.78 0.0
03 11:35 NW 15 G 23 10.00 Fair CLR 69.8 39.2 33% 29.77 0.0
03 11:15 NW 17 G 23 10.00 Fair CLR 68 37.4 33% 29.77 0.0
03 10:55 NW 13 10.00 Fair CLR 66.2 39.2 37% 29.78 0.0
03 10:35 W 14 G 21 10.00 Fair CLR 64.4 37.4 37% 29.77 0.0
03 10:15 W 16 10.00 Fair CLR 64.4 37.4 37% 29.77 0.0
03 09:55 W 13 10.00 Fair CLR 62.6 37.4 39% 29.77 0.0
03 09:35 W 18 G 25 10.00 Fair CLR 60.8 37.4 42% 29.77 0.0
03 09:15 W 16 10.00 Fair CLR 59 37.4 45% 29.77 0.0
03 08:55 W 17 G 24 10.00 Fair CLR 57.2 35.6 44% 29.77 0.0
03 08:35 W 20 10.00 Fair CLR 57.2 35.6 44% 29.77 0.0
03 08:15 SW 21 G 28 10.00 Fair and Breezy CLR 55.4 33.8 44% 29.77 0.0
03 07:55 SW 20 G 28 10.00 Fair CLR 53.6 33.8 47% 29.77 0.0
03 07:35 SW 17 10.00 Fair CLR 53.6 33.8 47% 29.77 0.0
03 07:15 SW 15 G 23 10.00 Fair CLR 51.8 33.8 50% 29.77 0.0
03 06:55 SW 13 10.00 Fair CLR 51.8 33.8 50% 29.77 0.0
03 06:35 SW 15 10.00 Fair CLR 51.8 32 47% 29.77 0.0
03 06:15 SW 14 10.00 Fair CLR 51.8 32 47% 29.78 0.0
03 05:35 S 13 10.00 Fair CLR 51.8 32 47% 29.79 0.0
03 05:15 SW 12 G 18 10.00 Mostly Cloudy BKN110 51.8 32 47% 29.81 0.0
03 04:55 SW 13 10.00 Mostly Cloudy FEW070 BKN110 51.8 32 47% 29.8 0.0
03 04:35 S 12 G 18 10.00 Mostly Cloudy BKN110 51.8 32 47% 29.81 0.0
03 04:15 SW 12 G 18 10.00 Mostly Cloudy BKN110 53.6 32 44% 29.81 0.0
03 03:55 SW 16 G 24 10.00 Mostly Cloudy FEW075 SCT090 BKN110 53.6 30.2 41% 29.81 0.0
Date Time (cdt) Wind (mph) Vis. (mi.) Weather Sky Cond. Air Dwpt Max. Min. Relative Humidity Wind Chill (°F) Heat Index (°F) altimeter (in) sea level (mb) 1 hr 3 hr 6 hr
6 hour
Temperature (ºF) Pressure Precipitation (in)